createdAt,value
2023-04-22T00:00:05.586Z,61.87
2023-04-22T00:03:10.295Z,62.96
2023-04-22T00:06:14.993Z,61.31
2023-04-22T00:09:19.432Z,62.64
2023-04-22T00:12:24.112Z,61.61
2023-04-22T00:15:28.644Z,62.07
2023-04-22T00:18:34.182Z,64.01
2023-04-22T00:21:38.694Z,64.29
2023-04-22T00:24:43.107Z,64.93
2023-04-22T00:27:47.812Z,64.64
2023-04-22T00:30:52.294Z,67.44
2023-04-22T00:33:56.812Z,69.47
2023-04-22T00:37:01.738Z,69.38
2023-04-22T00:40:07.292Z,71.01
2023-04-22T00:43:13.003Z,74.61
2023-04-22T00:46:17.588Z,78.46
2023-04-22T00:49:24.117Z,71.85
2023-04-22T00:52:28.716Z,69.89
2023-04-22T00:55:33.957Z,74.60
2023-04-22T00:58:38.542Z,72.79
2023-04-22T01:01:43.918Z,75.15
2023-04-22T01:04:49.117Z,76.45
2023-04-22T01:07:55.188Z,73.40
2023-04-22T01:11:00.056Z,75.83
2023-04-22T01:14:04.876Z,71.57
2023-04-22T01:17:12.215Z,73.56
2023-04-22T01:20:16.924Z,70.50
2023-04-22T01:23:22.205Z,72.52
2023-04-22T01:26:26.998Z,71.42
2023-04-22T01:29:32.047Z,73.26
2023-04-22T01:32:36.733Z,73.20
2023-04-22T01:35:41.416Z,73.14
2023-04-22T01:38:46.058Z,74.22
2023-04-22T01:41:51.126Z,72.11
2023-04-22T01:44:55.720Z,72.17
2023-04-22T01:48:00.297Z,74.10
2023-04-22T01:51:05.034Z,74.24
2023-04-22T01:54:10.155Z,74.87
2023-04-22T01:57:16.378Z,71.81
2023-04-22T02:00:21.503Z,82.70
2023-04-22T02:03:26.351Z,81.99
2023-04-22T02:06:33.368Z,79.14
2023-04-22T02:09:38.100Z,78.37
2023-04-22T02:12:42.717Z,78.64
2023-04-22T02:15:47.321Z,76.54
2023-04-22T02:18:53.486Z,75.81
2023-04-22T02:21:58.113Z,77.39
2023-04-22T02:25:03.305Z,75.49
2023-04-22T02:28:07.766Z,75.68
2023-04-22T02:31:12.408Z,87.36
2023-04-22T02:34:20.159Z,83.53
2023-04-22T02:37:24.670Z,80.62
2023-04-22T02:40:29.291Z,81.38
2023-04-22T02:43:33.785Z,80.80
2023-04-22T02:46:38.416Z,88.37
2023-04-22T02:49:42.964Z,85.77
2023-04-22T02:52:47.567Z,85.06
2023-04-22T02:55:52.429Z,88.88
2023-04-22T02:58:57.073Z,92.33
2023-04-22T03:02:02.293Z,92.55
2023-04-22T03:05:19.174Z,95.56
2023-04-22T03:08:23.775Z,93.94
2023-04-22T03:11:28.389Z,93.88
2023-04-22T03:14:32.849Z,97.44
2023-04-22T03:17:37.576Z,96.64
2023-04-22T03:20:47.547Z,97.88
2023-04-22T03:23:52.754Z,94.70
2023-04-22T03:26:57.426Z,100.00
2023-04-22T03:30:02.242Z,100.00
2023-04-22T03:33:07.208Z,100.00
2023-04-22T03:36:21.938Z,100.00
2023-04-22T03:39:26.628Z,100.00
2023-04-22T03:42:31.454Z,100.00
2023-04-22T03:45:36.250Z,100.00
2023-04-22T03:48:55.845Z,100.00
2023-04-22T03:52:06.411Z,100.00
2023-04-22T03:55:12.268Z,100.00
2023-04-22T03:58:17.052Z,100.00
2023-04-22T04:01:23.487Z,100.00
2023-04-22T04:04:32.667Z,100.00
2023-04-22T04:07:38.864Z,100.00
2023-04-22T04:10:44.528Z,100.00
2023-04-22T04:13:49.367Z,95.97
2023-04-22T04:17:04.329Z,94.13
2023-04-22T04:20:12.409Z,94.31
2023-04-22T04:23:17.896Z,92.98
2023-04-22T04:26:23.828Z,91.96
2023-04-22T04:29:33.296Z,98.21
2023-04-22T04:32:49.722Z,98.95
2023-04-22T04:35:55.386Z,100.00
2023-04-22T04:39:06.477Z,100.00
2023-04-22T04:42:12.173Z,100.00
2023-04-22T04:45:25.108Z,100.00
2023-04-22T04:48:30.428Z,100.00
2023-04-22T04:51:41.210Z,100.00
2023-04-22T04:54:46.066Z,100.00
2023-04-22T04:57:50.540Z,100.00
2023-04-22T05:00:55.133Z,100.00
2023-04-22T05:04:01.403Z,100.00
2023-04-22T05:07:06.192Z,100.00
2023-04-22T05:10:14.344Z,100.00
2023-04-22T05:13:18.916Z,100.00
2023-04-22T05:16:25.501Z,100.00
2023-04-22T05:19:30.216Z,100.00
2023-04-22T05:22:36.633Z,100.00
2023-04-22T05:25:41.410Z,100.00
2023-04-22T05:28:48.883Z,100.00
2023-04-22T05:31:55.449Z,100.00
2023-04-22T05:35:00.364Z,100.00
2023-04-22T05:38:06.412Z,100.00
2023-04-22T05:41:12.779Z,100.00
2023-04-22T05:44:17.632Z,100.00
2023-04-22T05:47:22.797Z,100.00
2023-04-22T05:50:27.884Z,100.00
2023-04-22T05:53:39.855Z,100.00
2023-04-22T05:56:44.671Z,100.00
2023-04-22T05:59:49.239Z,100.00
2023-04-22T06:02:53.805Z,100.00
2023-04-22T06:05:58.644Z,100.00
2023-04-22T06:09:03.361Z,100.00
2023-04-22T06:12:07.925Z,100.00
2023-04-22T06:15:13.064Z,100.00
2023-04-22T06:18:18.588Z,100.00
2023-04-22T06:21:23.528Z,95.08
2023-04-22T06:24:28.040Z,94.35
2023-04-22T06:27:32.876Z,100.00
2023-04-22T06:30:37.393Z,98.23
2023-04-22T06:33:42.076Z,98.05
2023-04-22T06:36:46.638Z,91.66
2023-04-22T06:39:51.093Z,88.82
2023-04-22T06:43:15.217Z,91.13
2023-04-22T06:46:38.906Z,86.50
2023-04-22T06:49:46.497Z,89.19
2023-04-22T06:53:00.318Z,83.57
2023-04-22T06:56:05.801Z,85.48
2023-04-22T06:59:10.309Z,85.73
2023-04-22T07:02:15.066Z,84.82
2023-04-22T07:05:21.383Z,86.55
2023-04-22T07:08:26.760Z,74.51
2023-04-22T07:11:34.111Z,73.87
2023-04-22T07:14:49.259Z,70.01
2023-04-22T07:17:55.602Z,72.68
2023-04-22T07:21:00.334Z,72.68
2023-04-22T07:24:05.196Z,70.29
2023-04-22T07:27:09.828Z,69.16
2023-04-22T07:30:14.495Z,60.74
2023-04-22T07:33:19.029Z,60.42
2023-04-22T07:36:23.456Z,61.34
2023-04-22T07:39:28.120Z,61.35
2023-04-22T07:42:32.811Z,61.85
2023-04-22T07:45:39.165Z,60.67
2023-04-22T07:48:43.757Z,58.71
2023-04-22T07:51:48.236Z,57.74
2023-04-22T07:54:52.716Z,58.42
2023-04-22T07:57:57.288Z,52.93
2023-04-22T08:01:01.772Z,52.83
2023-04-22T08:04:07.929Z,53.05
2023-04-22T08:07:30.812Z,54.15
2023-04-22T08:10:36.842Z,54.06
2023-04-22T08:13:41.429Z,52.74
2023-04-22T08:16:45.838Z,53.47
2023-04-22T08:19:50.323Z,50.24
2023-04-22T08:22:58.188Z,52.32
2023-04-22T08:26:03.819Z,52.53
2023-04-22T08:29:08.397Z,49.85
2023-04-22T08:32:12.860Z,51.17
2023-04-22T08:35:19.793Z,51.62
2023-04-22T08:38:24.382Z,53.10
2023-04-22T08:41:29.839Z,50.52
2023-04-22T08:44:35.490Z,46.77
2023-04-22T08:47:42.591Z,47.71
2023-04-22T08:50:47.986Z,47.46
2023-04-22T08:53:52.613Z,46.84
2023-04-22T08:56:57.476Z,48.39
2023-04-22T09:00:03.668Z,47.31
2023-04-22T09:03:08.960Z,46.62
2023-04-22T09:06:14.071Z,44.29
2023-04-22T09:09:19.842Z,49.14
2023-04-22T09:12:27.572Z,47.00
2023-04-22T09:15:33.235Z,43.45
2023-04-22T09:18:43.039Z,45.37
2023-04-22T09:21:49.903Z,43.21
2023-04-22T09:24:55.713Z,46.82
2023-04-22T09:28:00.621Z,41.32
2023-04-22T09:31:05.372Z,43.24
2023-04-22T09:34:09.850Z,40.77
2023-04-22T09:37:14.416Z,42.02
2023-04-22T09:40:20.073Z,42.97
2023-04-22T09:43:24.503Z,41.59
2023-04-22T09:46:31.157Z,41.80
2023-04-22T09:49:39.286Z,42.55
2023-04-22T09:52:44.125Z,39.75
2023-04-22T09:55:51.477Z,40.99
2023-04-22T09:58:55.930Z,39.78
2023-04-22T10:02:04.431Z,38.39
2023-04-22T10:05:10.073Z,38.78
2023-04-22T10:08:16.748Z,39.02
2023-04-22T10:11:21.429Z,39.53
2023-04-22T10:14:26.181Z,38.88
2023-04-22T10:17:33.173Z,38.59
2023-04-22T10:20:40.285Z,36.75
2023-04-22T10:23:48.601Z,38.57
2023-04-22T10:26:58.053Z,35.71
2023-04-22T10:30:02.527Z,35.84
2023-04-22T10:33:23.598Z,36.72
2023-04-22T10:36:28.269Z,37.34
2023-04-22T10:39:33.441Z,37.01
2023-04-22T10:42:41.439Z,33.64
2023-04-22T10:45:45.857Z,34.43
2023-04-22T10:48:50.666Z,34.75
2023-04-22T10:51:59.890Z,35.40
2023-04-22T10:55:05.024Z,34.66
2023-04-22T10:58:24.676Z,32.22
2023-04-22T11:01:29.221Z,34.25
2023-04-22T11:04:34.855Z,33.29
2023-04-22T11:07:41.697Z,34.48
2023-04-22T11:10:52.093Z,33.02
2023-04-22T11:13:57.987Z,31.18
2023-04-22T11:17:02.611Z,34.73
2023-04-22T11:20:07.978Z,33.65
2023-04-22T11:23:17.983Z,35.81
2023-04-22T11:26:35.735Z,36.04
2023-04-22T11:29:40.413Z,34.00
2023-04-22T11:32:47.342Z,35.57
2023-04-22T11:35:52.068Z,33.93
2023-04-22T11:38:57.115Z,34.59
2023-04-22T11:42:02.593Z,31.88
2023-04-22T11:45:08.481Z,32.42
2023-04-22T11:48:14.708Z,36.41
2023-04-22T11:51:19.218Z,34.50
2023-04-22T11:54:37.201Z,34.30
2023-04-22T11:57:42.231Z,34.19
2023-04-22T12:00:48.996Z,36.78
2023-04-22T12:03:55.298Z,35.34
2023-04-22T12:06:59.937Z,32.25
2023-04-22T12:10:08.125Z,29.82
2023-04-22T12:13:24.599Z,32.58
2023-04-22T12:16:29.198Z,31.79
2023-04-22T12:19:33.753Z,32.45
2023-04-22T12:22:39.078Z,33.83
2023-04-22T12:25:43.739Z,31.13
2023-04-22T12:28:49.636Z,29.13
2023-04-22T12:31:54.249Z,29.58
2023-04-22T12:34:58.740Z,30.98
2023-04-22T12:38:04.375Z,31.20
2023-04-22T12:41:09.151Z,30.86
2023-04-22T12:44:13.634Z,29.88
2023-04-22T12:47:18.331Z,30.46
2023-04-22T12:50:22.995Z,29.90
2023-04-22T12:53:28.180Z,33.33
2023-04-22T12:56:32.753Z,31.39
2023-04-22T12:59:37.576Z,29.78
2023-04-22T13:02:43.708Z,28.88
2023-04-22T13:05:48.516Z,28.95
2023-04-22T13:08:53.033Z,28.57
2023-04-22T13:11:58.290Z,29.70
2023-04-22T13:15:04.051Z,29.60
2023-04-22T13:18:08.634Z,29.20
2023-04-22T13:21:14.703Z,28.36
2023-04-22T13:24:19.731Z,27.11
2023-04-22T13:27:24.407Z,27.06
2023-04-22T13:30:28.895Z,28.95
2023-04-22T13:33:33.380Z,29.98
2023-04-22T13:36:38.100Z,28.24
2023-04-22T13:39:42.798Z,28.36
2023-04-22T13:42:47.470Z,26.80
2023-04-22T13:45:52.572Z,27.86
2023-04-22T13:48:57.323Z,28.75
2023-04-22T13:52:01.890Z,26.64
2023-04-22T13:55:08.153Z,28.09
2023-04-22T13:58:12.679Z,26.08
2023-04-22T14:01:18.364Z,28.97
2023-04-22T14:04:23.014Z,29.51
2023-04-22T14:07:29.158Z,26.41
2023-04-22T14:10:33.760Z,26.75
2023-04-22T14:13:38.565Z,27.55
2023-04-22T14:16:43.209Z,30.79
2023-04-22T14:19:47.818Z,28.33
2023-04-22T14:22:52.298Z,26.08
2023-04-22T14:25:58.163Z,25.94
2023-04-22T14:29:02.816Z,26.21
2023-04-22T14:32:07.384Z,25.85
2023-04-22T14:35:12.166Z,22.04
2023-04-22T14:38:16.726Z,26.85
2023-04-22T14:41:21.567Z,27.44
2023-04-22T14:44:26.285Z,26.43
2023-04-22T14:47:30.936Z,26.01
2023-04-22T14:50:35.776Z,26.88
2023-04-22T14:53:41.558Z,27.72
2023-04-22T14:56:47.977Z,26.13
2023-04-22T14:59:52.520Z,27.78
2023-04-22T15:02:57.217Z,27.51
2023-04-22T15:06:01.976Z,27.78
2023-04-22T15:09:06.857Z,30.69
2023-04-22T15:12:12.356Z,31.65
2023-04-22T15:15:18.313Z,30.70
2023-04-22T15:18:23.013Z,27.81
2023-04-22T15:21:27.903Z,27.71
2023-04-22T15:24:32.432Z,29.64
2023-04-22T15:27:38.439Z,29.29
2023-04-22T15:30:43.719Z,29.28
2023-04-22T15:33:48.269Z,30.25
2023-04-22T15:36:53.201Z,28.61
2023-04-22T15:39:59.196Z,28.31
2023-04-22T15:43:03.757Z,28.07
2023-04-22T15:46:09.651Z,29.04
2023-04-22T15:49:14.830Z,29.63
2023-04-22T15:52:19.478Z,31.97
2023-04-22T15:55:24.122Z,30.83
2023-04-22T15:58:32.392Z,31.78
2023-04-22T16:01:40.695Z,32.51
2023-04-22T16:04:45.459Z,32.80
2023-04-22T16:07:50.751Z,31.94
2023-04-22T16:10:55.470Z,32.93
2023-04-22T16:14:00.003Z,32.88
2023-04-22T16:17:05.877Z,33.59
2023-04-22T16:20:10.630Z,32.62
2023-04-22T16:23:15.418Z,33.64
2023-04-22T16:26:21.497Z,32.69
2023-04-22T16:29:26.013Z,32.76
2023-04-22T16:32:31.202Z,35.57
2023-04-22T16:35:35.887Z,33.83
2023-04-22T16:38:40.769Z,33.90
2023-04-22T16:41:45.264Z,33.75
2023-04-22T16:44:51.235Z,34.07
2023-04-22T16:47:55.701Z,34.14
2023-04-22T16:51:00.178Z,33.73
2023-04-22T16:54:04.745Z,32.80
2023-04-22T16:57:10.564Z,34.16
2023-04-22T17:00:15.623Z,33.87
2023-04-22T17:03:21.286Z,34.13
2023-04-22T17:06:27.900Z,33.34
2023-04-22T17:09:33.046Z,35.39
2023-04-22T17:12:37.581Z,33.81
2023-04-22T17:15:42.136Z,34.46
2023-04-22T17:18:47.019Z,35.39
2023-04-22T17:21:51.637Z,35.31
2023-04-22T17:24:57.421Z,35.22
2023-04-22T17:28:01.883Z,35.22
2023-04-22T17:31:07.008Z,34.46
2023-04-22T17:34:11.605Z,35.15
2023-04-22T17:37:17.415Z,34.84
2023-04-22T17:40:22.100Z,35.97
2023-04-22T17:43:26.742Z,35.94
2023-04-22T17:46:31.197Z,37.44
2023-04-22T17:49:35.709Z,37.34
2023-04-22T17:52:40.592Z,35.38
2023-04-22T17:55:45.097Z,36.12
2023-04-22T17:58:51.324Z,35.32
2023-04-22T18:01:55.821Z,35.03
2023-04-22T18:05:00.608Z,34.82
2023-04-22T18:08:05.066Z,35.90
2023-04-22T18:11:09.661Z,37.46
2023-04-22T18:14:14.221Z,37.38
2023-04-22T18:17:21.295Z,36.62
2023-04-22T18:20:25.757Z,38.23
2023-04-22T18:23:30.728Z,37.91
2023-04-22T18:26:35.312Z,39.07
2023-04-22T18:29:39.908Z,39.31
2023-04-22T18:32:44.677Z,40.87
2023-04-22T18:35:49.263Z,40.23
2023-04-22T18:38:53.842Z,40.75
2023-04-22T18:41:58.405Z,40.22
2023-04-22T18:45:05.018Z,40.34
2023-04-22T18:48:09.699Z,40.45
2023-04-22T18:51:14.268Z,39.72
2023-04-22T18:54:18.936Z,40.20
2023-04-22T18:57:23.470Z,38.03
2023-04-22T19:00:28.028Z,40.42
2023-04-22T19:03:32.729Z,42.37
2023-04-22T19:06:37.329Z,42.89
2023-04-22T19:09:41.954Z,43.99
2023-04-22T19:12:46.461Z,44.71
2023-04-22T19:15:51.078Z,45.38
2023-04-22T19:18:55.996Z,45.60
2023-04-22T19:22:01.153Z,45.58
2023-04-22T19:25:06.369Z,47.84
2023-04-22T19:28:10.949Z,48.94
2023-04-22T19:31:19.600Z,48.31
2023-04-22T19:34:24.176Z,51.75
2023-04-22T19:37:28.689Z,50.88
2023-04-22T19:40:34.334Z,51.24
2023-04-22T19:43:40.358Z,51.28
2023-04-22T19:46:45.011Z,49.84
2023-04-22T19:49:49.937Z,51.69
2023-04-22T19:53:03.657Z,51.90
2023-04-22T19:56:09.133Z,55.49
2023-04-22T19:59:15.145Z,55.87
2023-04-22T20:02:22.961Z,53.70
2023-04-22T20:05:27.930Z,54.24
2023-04-22T20:08:33.990Z,54.47
2023-04-22T20:11:38.777Z,56.46
2023-04-22T20:14:43.650Z,57.94
2023-04-22T20:17:48.529Z,57.86
2023-04-22T20:20:58.370Z,58.91
2023-04-22T20:24:06.820Z,61.21
2023-04-22T20:27:14.199Z,59.67
2023-04-22T20:30:18.904Z,60.49
2023-04-22T20:33:23.504Z,62.48
2023-04-22T20:36:28.572Z,65.59
2023-04-22T20:39:34.352Z,65.53
2023-04-22T20:42:39.057Z,65.51
2023-04-22T20:45:43.717Z,70.20
2023-04-22T20:48:48.438Z,72.57
2023-04-22T20:51:53.089Z,72.65
2023-04-22T20:54:58.575Z,72.11
2023-04-22T20:58:03.987Z,69.39
2023-04-22T21:01:08.961Z,68.55
2023-04-22T21:04:14.730Z,74.28
2023-04-22T21:07:21.260Z,73.65
2023-04-22T21:10:26.053Z,71.94
2023-04-22T21:13:30.899Z,73.17
2023-04-22T21:16:40.490Z,72.64
2023-04-22T21:19:48.242Z,73.48
2023-04-22T21:22:53.831Z,80.76
2023-04-22T21:26:01.473Z,79.58
2023-04-22T21:29:06.597Z,81.06
2023-04-22T21:32:13.232Z,79.59
2023-04-22T21:35:17.764Z,79.65
2023-04-22T21:38:22.284Z,80.88
2023-04-22T21:41:26.811Z,78.15
2023-04-22T21:44:31.235Z,80.91
2023-04-22T21:47:35.741Z,85.90
2023-04-22T21:50:40.356Z,84.47
2023-04-22T21:53:44.951Z,82.57
2023-04-22T21:56:50.564Z,80.39
2023-04-22T21:59:56.250Z,80.19
2023-04-22T22:03:01.263Z,80.98
2023-04-22T22:06:06.358Z,79.58
2023-04-22T22:09:11.671Z,84.93
2023-04-22T22:12:16.189Z,84.00
2023-04-22T22:15:21.511Z,85.89
2023-04-22T22:18:26.168Z,87.49
2023-04-22T22:21:31.610Z,85.82
2023-04-22T22:24:36.272Z,85.22
2023-04-22T22:27:49.075Z,81.38
2023-04-22T22:30:59.724Z,84.46
2023-04-22T22:34:04.190Z,84.73
2023-04-22T22:37:08.757Z,92.54
2023-04-22T22:40:13.332Z,89.17
2023-04-22T22:43:19.236Z,87.55
2023-04-22T22:46:23.830Z,91.16
2023-04-22T22:49:28.441Z,96.06
2023-04-22T22:52:33.012Z,93.58
2023-04-22T22:55:37.582Z,93.35
2023-04-22T22:58:42.044Z,92.96
2023-04-22T23:01:46.644Z,87.93
2023-04-22T23:04:51.808Z,86.75
2023-04-22T23:07:56.451Z,88.12
2023-04-22T23:11:01.986Z,91.90
2023-04-22T23:14:09.471Z,93.43
2023-04-22T23:17:14.100Z,94.33
2023-04-22T23:20:19.808Z,93.52
2023-04-22T23:23:24.815Z,94.11
2023-04-22T23:26:32.248Z,97.88
2023-04-22T23:29:37.215Z,92.72
2023-04-22T23:32:43.039Z,98.95
2023-04-22T23:35:47.785Z,99.19
2023-04-22T23:38:52.325Z,99.33
2023-04-22T23:41:56.872Z,98.30
2023-04-22T23:45:03.785Z,98.03
2023-04-22T23:48:08.676Z,90.73
2023-04-22T23:51:16.719Z,93.97
2023-04-22T23:54:21.349Z,91.59
2023-04-22T23:57:26.146Z,88.05
